Time;durP1;ratioP1;P1;durP2;ratioP2;P2;SDS_P1;SDS_P2;PMS_P1;PMS_P2;Temp;Humidity;BMP_temperature;BMP_pressure;BME280_temperature;BME280_humidity;BME280_pressure;Samples;Min_cycle;Max_cycle;Signal;HPM_P1;HPM_P2
2024/03/08 00:00:18;;;;;;;3.03;1.30;;;;;;;8.88;65.07;100234.28;4474610;31;32770;-83
2024/03/08 00:02:50;;;;;;;1.55;1.37;;;;;;;8.79;65.44;100235.41;4489794;31;32698;-82
2024/03/08 00:05:18;;;;;;;0.03;0.03;;;;;;;8.92;65.31;100227.97;4476415;31;33929;-82
2024/03/08 00:07:46;;;;;;;1.37;1.27;;;;;;;8.97;65.17;100234.84;4463149;31;32852;-82
2024/03/08 00:10:14;;;;;;;0.37;0.37;;;;;;;9.04;64.72;100227.63;4476489;31;32957;-82
2024/03/08 00:12:44;;;;;;;0.52;0.52;;;;;;;9.04;64.48;100226.75;4477592;31;33684;-83
2024/03/08 00:15:15;;;;;;;0.60;0.60;;;;;;;9.13;64.92;100231.75;4476877;31;32999;-82
2024/03/08 00:17:44;;;;;;;2.95;1.15;;;;;;;9.16;64.71;100231.62;4492553;31;33730;-82
2024/03/08 00:20:13;;;;;;;0.20;0.20;;;;;;;8.89;65.25;100228.94;4478543;31;33803;-82
2024/03/08 00:22:41;;;;;;;2.03;1.40;;;;;;;8.79;65.27;100232.75;4489688;31;32542;-82
2024/03/08 00:25:09;;;;;;;0.93;0.93;;;;;;;9.03;64.14;100230.31;4492431;31;32822;-82
2024/03/08 00:27:40;;;;;;;4.57;3.20;;;;;;;8.82;65.25;100230.03;4480673;31;33576;-82
2024/03/08 00:30:10;;;;;;;4.68;1.48;;;;;;;8.94;65.00;100232.28;4490666;31;33897;-83
2024/03/08 00:32:38;;;;;;;0.90;0.90;;;;;;;9.29;63.24;100225.06;4478290;31;34785;-83
2024/03/08 00:35:07;;;;;;;1.55;1.45;;;;;;;8.96;63.65;100221.72;4479165;31;32532;-82
2024/03/08 00:37:36;;;;;;;1.10;1.00;;;;;;;8.89;64.36;100228.09;4491353;31;33633;-82
2024/03/08 00:40:04;;;;;;;2.30;1.95;;;;;;;8.91;64.85;100231.53;4478539;31;34590;-82
2024/03/08 00:42:33;;;;;;;2.33;1.15;;;;;;;9.09;63.75;100227.47;4479760;31;34347;-83
2024/03/08 00:45:01;;;;;;;0.60;0.60;;;;;;;8.65;64.85;100227.03;4479207;31;34913;-83
2024/03/08 00:47:29;;;;;;;1.12;1.08;;;;;;;8.56;65.17;100222.03;4490475;31;32055;-83
2024/03/08 00:49:57;;;;;;;0.93;0.88;;;;;;;8.67;64.97;100220.81;4476547;31;31996;-83
2024/03/08 00:52:25;;;;;;;1.12;1.05;;;;;;;8.59;65.86;100222.81;4474632;31;33587;-82
2024/03/08 00:54:53;;;;;;;2.60;2.40;;;;;;;8.77;65.68;100220.53;4476469;31;32399;-82
2024/03/08 00:57:21;;;;;;;1.85;1.48;;;;;;;8.92;63.29;100215.66;4478585;31;33439;-82
2024/03/08 00:59:49;;;;;;;2.80;1.92;;;;;;;9.16;62.73;100211.44;4478825;31;33292;-82
2024/03/08 01:02:18;;;;;;;1.70;1.60;;;;;;;8.74;64.31;100218.00;4492239;31;33589;-83
2024/03/08 01:04:47;;;;;;;1.62;1.52;;;;;;;8.90;64.01;100209.59;4478327;31;33990;-83
2024/03/08 01:07:15;;;;;;;1.75;1.08;;;;;;;8.90;63.60;100212.22;4476110;31;32887;-82
2024/03/08 01:09:43;;;;;;;0.85;0.85;;;;;;;8.81;64.24;100207.22;4476772;31;34238;-82
2024/03/08 01:12:10;;;;;;;3.37;1.87;;;;;;;8.83;64.90;100208.06;4491622;31;32656;-83
2024/03/08 01:14:39;;;;;;;1.70;1.60;;;;;;;8.85;65.00;100208.88;4490941;31;34373;-82
2024/03/08 01:17:07;;;;;;;1.95;1.83;;;;;;;8.94;65.00;100211.22;4478387;31;33628;-82
2024/03/08 01:19:35;;;;;;;2.00;1.80;;;;;;;8.86;65.42;100205.31;4488865;31;34452;-82
2024/03/08 01:22:03;;;;;;;3.40;2.22;;;;;;;8.89;64.98;100210.50;4464310;31;33313;-83
2024/03/08 01:24:31;;;;;;;2.40;0.95;;;;;;;8.81;65.40;100209.87;4492483;31;33477;-83
2024/03/08 01:26:59;;;;;;;2.62;2.25;;;;;;;8.82;65.48;100208.09;4476552;31;33067;-83
2024/03/08 01:29:29;;;;;;;0.35;0.35;;;;;;;9.30;62.82;100213.59;4492500;31;32652;-83
2024/03/08 01:31:57;;;;;;;1.08;1.08;;;;;;;9.03;63.96;100201.34;4490451;31;33833;-83
2024/03/08 01:34:24;;;;;;;4.15;1.50;;;;;;;9.06;64.13;100206.47;4492468;31;32768;-83
2024/03/08 01:36:53;;;;;;;1.85;1.75;;;;;;;8.78;64.93;100209.09;4492086;31;34262;-83
2024/03/08 01:39:21;;;;;;;2.53;2.42;;;;;;;9.04;64.80;100201.28;4474921;31;32628;-83
2024/03/08 01:41:49;;;;;;;1.85;1.37;;;;;;;9.09;64.70;100206.41;4477427;31;32563;-83
2024/03/08 01:44:17;;;;;;;2.65;1.65;;;;;;;9.12;64.38;100203.69;4490624;31;33826;-83
2024/03/08 01:46:45;;;;;;;0.85;0.85;;;;;;;9.24;63.42;100201.50;4489506;31;34318;-82
2024/03/08 01:49:13;;;;;;;3.12;1.77;;;;;;;9.08;64.07;100197.63;4480277;31;33896;-82
2024/03/08 01:51:42;;;;;;;2.10;2.00;;;;;;;9.33;62.86;100200.34;4490997;31;33546;-83
2024/03/08 01:54:10;;;;;;;0.80;0.80;;;;;;;9.33;62.30;100196.84;4480191;31;32558;-81
2024/03/08 01:56:38;;;;;;;1.27;1.20;;;;;;;9.12;62.85;100193.16;4465727;31;32600;-82
2024/03/08 01:59:10;;;;;;;1.92;1.77;;;;;;;8.80;64.54;100194.97;4479555;31;34574;-83
2024/03/08 02:01:37;;;;;;;1.80;1.12;;;;;;;8.84;63.66;100196.63;4464310;31;34275;-83
2024/03/08 02:04:07;;;;;;;2.35;2.17;;;;;;;8.80;63.68;100200.25;4488999;31;33730;-83
2024/03/08 02:06:34;;;;;;;2.37;2.28;;;;;;;8.78;64.42;100194.16;4463885;31;33078;-83
2024/03/08 02:09:05;;;;;;;1.02;0.93;;;;;;;8.92;63.89;100196.37;4475761;31;32782;-82
2024/03/08 02:11:35;;;;;;;2.00;1.90;;;;;;;9.00;63.08;100194.38;4492485;31;33801;-82
2024/03/08 02:14:06;;;;;;;1.48;1.37;;;;;;;8.97;63.64;100200.63;4478133;31;34006;-82
2024/03/08 02:16:34;;;;;;;1.15;1.15;;;;;;;8.77;64.32;100200.34;4467741;31;34031;-83
2024/03/08 02:19:02;;;;;;;0.70;0.70;;;;;;;8.85;64.61;100200.97;4476401;31;34276;-83
2024/03/08 02:21:29;;;;;;;5.07;2.05;;;;;;;9.07;63.83;100198.56;4490784;31;34030;-82
2024/03/08 02:23:58;;;;;;;0.85;0.85;;;;;;;9.07;62.92;100197.66;4464479;31;33522;-82
2024/03/08 02:26:25;;;;;;;2.47;1.48;;;;;;;9.32;62.01;100195.12;4491337;31;33210;-82
2024/03/08 02:28:54;;;;;;;1.25;1.20;;;;;;;9.06;62.93;100195.94;4488701;31;33781;-82
2024/03/08 02:31:22;;;;;;;1.37;1.27;;;;;;;9.03;62.81;100201.34;4463593;31;35436;-82
2024/03/08 02:33:49;;;;;;;2.10;1.75;;;;;;;9.10;62.78;100203.72;4493276;31;33409;-82
2024/03/08 02:36:17;;;;;;;2.08;1.85;;;;;;;9.29;61.60;100203.13;4478950;31;34096;-82
2024/03/08 02:38:45;;;;;;;1.48;1.37;;;;;;;9.13;62.11;100198.34;4479491;31;33149;-83
2024/03/08 02:41:13;;;;;;;1.20;1.10;;;;;;;8.95;62.58;100197.16;4488177;31;34731;-83
2024/03/08 02:43:40;;;;;;;1.20;1.17;;;;;;;9.03;62.12;100196.91;4478324;31;34831;-83
2024/03/08 02:46:09;;;;;;;9.13;3.28;;;;;;;8.37;64.74;100204.13;4463325;31;32501;-83
2024/03/08 02:48:37;;;;;;;0.73;0.73;;;;;;;8.50;63.95;100207.28;4475821;31;33159;-82
2024/03/08 02:51:05;;;;;;;0.85;0.85;;;;;;;8.51;63.58;100202.87;4476586;31;34373;-82
2024/03/08 02:53:35;;;;;;;5.45;3.47;;;;;;;8.15;65.54;100205.59;4464803;31;32381;-83
2024/03/08 02:56:02;;;;;;;1.85;1.75;;;;;;;8.17;64.37;100202.03;4489490;31;33619;-83
2024/03/08 02:58:30;;;;;;;6.72;2.12;;;;;;;8.31;64.34;100201.66;4473608;31;34965;-83
2024/03/08 03:00:58;;;;;;;3.35;1.42;;;;;;;8.46;63.75;100200.38;4490912;31;33512;-83
2024/03/08 03:03:26;;;;;;;1.00;0.95;;;;;;;8.11;64.80;100207.44;4475224;31;34428;-82
2024/03/08 03:05:56;;;;;;;1.62;1.55;;;;;;;8.16;65.02;100202.03;4492588;31;34344;-82
2024/03/08 03:08:25;;;;;;;0.73;0.73;;;;;;;8.37;64.22;100206.75;4488344;31;32686;-83
2024/03/08 03:10:52;;;;;;;3.17;1.90;;;;;;;8.51;63.91;100203.75;4487838;31;35790;-83
2024/03/08 03:13:20;;;;;;;1.87;1.58;;;;;;;8.42;64.37;100209.28;4474589;31;34090;-83
2024/03/08 03:15:48;;;;;;;3.50;2.83;;;;;;;8.12;64.69;100210.97;4486594;31;33271;-82
2024/03/08 03:18:15;;;;;;;2.62;1.85;;;;;;;8.28;64.74;100201.72;4477483;31;34224;-83
2024/03/08 03:20:44;;;;;;;5.78;2.40;;;;;;;8.43;63.98;100211.84;4479016;31;33270;-83
2024/03/08 03:23:14;;;;;;;2.28;2.08;;;;;;;8.54;63.50;100208.03;4477860;31;34787;-83
2024/03/08 03:25:43;;;;;;;5.05;4.28;;;;;;;8.56;63.22;100212.38;4479353;31;32484;-83
2024/03/08 03:28:14;;;;;;;2.75;2.55;;;;;;;8.57;63.72;100207.97;4476444;31;34549;-83
2024/03/08 03:30:44;;;;;;;0.70;0.43;;;;;;;8.45;63.67;100207.41;4480034;31;34718;-83
2024/03/08 03:33:12;;;;;;;3.10;2.90;;;;;;;8.36;64.66;100207.69;4477072;31;34178;-83
2024/03/08 03:35:41;;;;;;;1.45;1.35;;;;;;;8.44;64.07;100218.81;4474230;31;33107;-82
2024/03/08 03:38:09;;;;;;;2.17;2.08;;;;;;;8.26;64.50;100210.56;4477668;31;33573;-83
2024/03/08 03:40:42;;;;;;;2.37;1.67;;;;;;;8.39;64.74;100215.47;4476415;31;34068;-83
2024/03/08 03:43:10;;;;;;;3.45;3.20;;;;;;;8.41;64.95;100218.94;4489240;31;34096;-82
2024/03/08 03:45:41;;;;;;;3.72;2.12;;;;;;;8.43;64.74;100222.38;4478792;31;33245;-82
2024/03/08 03:48:09;;;;;;;5.47;3.80;;;;;;;8.74;63.56;100221.50;4474773;31;33347;-82
2024/03/08 03:50:39;;;;;;;2.78;2.58;;;;;;;8.67;63.98;100219.94;4490998;31;32824;-82
2024/03/08 03:53:08;;;;;;;4.22;3.83;;;;;;;8.85;63.25;100218.53;4494208;31;32355;-83
2024/03/08 03:55:38;;;;;;;6.97;5.15;;;;;;;8.91;63.05;100213.09;4494004;31;33184;-81
2024/03/08 03:58:09;;;;;;;5.00;3.78;;;;;;;9.10;61.42;100213.37;4491458;31;33901;-81
2024/03/08 04:00:39;;;;;;;2.35;2.08;;;;;;;8.79;62.48;100222.22;4478015;31;33915;-82
2024/03/08 04:03:08;;;;;;;2.12;2.00;;;;;;;8.56;63.71;100219.41;4478586;31;33520;-82
2024/03/08 04:05:36;;;;;;;1.87;1.77;;;;;;;8.52;63.90;100221.25;4495611;31;33792;-82
2024/03/08 04:08:04;;;;;;;5.05;4.47;;;;;;;8.85;62.62;100219.41;4479015;31;33921;-82
2024/03/08 04:10:32;;;;;;;2.50;2.30;;;;;;;8.97;61.83;100211.16;4477138;31;33969;-82
2024/03/08 04:13:00;;;;;;;3.75;2.45;;;;;;;8.84;62.18;100217.69;4477313;31;33721;-83
2024/03/08 04:15:28;;;;;;;1.45;1.40;;;;;;;8.15;63.63;100218.75;4477571;31;34295;-83
2024/03/08 04:17:57;;;;;;;0.98;0.98;;;;;;;8.55;63.19;100218.53;4466001;31;33656;-83
2024/03/08 04:20:25;;;;;;;3.50;3.28;;;;;;;8.60;62.70;100221.91;4490919;31;33771;-84
2024/03/08 04:22:52;;;;;;;1.98;1.87;;;;;;;8.44;63.42;100221.47;4478137;31;32814;-81
2024/03/08 04:25:21;;;;;;;2.05;1.90;;;;;;;8.69;62.24;100224.28;4490407;31;33745;-82
2024/03/08 04:27:49;;;;;;;6.28;3.72;;;;;;;8.78;62.04;100223.13;4490069;31;34340;-82
2024/03/08 04:30:17;;;;;;;2.03;1.73;;;;;;;8.67;62.09;100225.22;4476343;31;34785;-83
2024/03/08 04:32:45;;;;;;;1.52;1.42;;;;;;;8.73;62.37;100227.66;4476111;31;34073;-82
2024/03/08 04:35:14;;;;;;;1.58;1.48;;;;;;;8.57;62.37;100226.38;4477614;31;33203;-83
2024/03/08 04:37:42;;;;;;;6.70;3.60;;;;;;;8.54;63.17;100223.84;4478754;31;33738;-82
2024/03/08 04:40:11;;;;;;;1.77;1.05;;;;;;;8.60;63.40;100228.94;4477858;31;34484;-82
2024/03/08 04:42:39;;;;;;;1.33;1.30;;;;;;;8.41;64.00;100232.09;4476592;31;33380;-82
2024/03/08 04:45:13;;;;;;;3.45;2.87;;;;;;;8.54;63.49;100224.69;4490805;31;34464;-82
2024/03/08 04:47:42;;;;;;;1.42;1.15;;;;;;;8.53;63.55;100230.87;4465102;31;32529;-82
2024/03/08 04:50:11;;;;;;;3.78;1.87;;;;;;;8.63;64.02;100223.56;4475141;31;34273;-82
2024/03/08 04:52:38;;;;;;;3.15;2.95;;;;;;;8.80;62.91;100231.84;4477035;31;33583;-82
2024/03/08 04:55:06;;;;;;;3.45;3.03;;;;;;;8.78;62.63;100228.38;4490105;31;33253;-82
2024/03/08 04:57:34;;;;;;;4.00;2.58;;;;;;;8.75;62.28;100231.13;4492180;31;33720;-82
2024/03/08 05:00:07;;;;;;;1.58;1.40;;;;;;;8.90;61.87;100227.16;4490312;31;33689;-82
2024/03/08 05:02:37;;;;;;;1.50;1.42;;;;;;;8.57;63.06;100231.66;4462546;31;34378;-82
2024/03/08 05:05:12;;;;;;;2.50;2.12;;;;;;;8.69;62.83;100228.69;4478099;31;31942;-82
2024/03/08 05:07:40;;;;;;;4.07;2.53;;;;;;;8.73;62.97;100230.28;4480757;31;32657;-82
2024/03/08 05:10:08;;;;;;;2.80;1.95;;;;;;;8.55;63.32;100230.84;4463886;31;33023;-82
2024/03/08 05:12:38;;;;;;;3.22;1.95;;;;;;;8.41;63.67;100228.59;4492789;31;35289;-82
2024/03/08 05:15:07;;;;;;;2.40;2.00;;;;;;;8.40;64.50;100230.37;4464393;31;33181;-82
2024/03/08 05:17:35;;;;;;;1.95;1.85;;;;;;;8.65;63.25;100242.84;4475436;31;32825;-83
2024/03/08 05:20:03;;;;;;;8.20;3.25;;;;;;;8.64;63.80;100230.56;4465907;31;32240;-82
2024/03/08 05:22:31;;;;;;;2.03;1.92;;;;;;;8.57;63.97;100235.16;4491055;31;34440;-82
2024/03/08 05:24:59;;;;;;;4.82;4.45;;;;;;;8.49;64.32;100239.75;4479812;31;32278;-83
2024/03/08 05:27:28;;;;;;;12.82;2.15;;;;;;;8.54;64.27;100229.09;4472284;31;32489;-83
2024/03/08 05:29:56;;;;;;;14.90;3.75;;;;;;;8.72;63.71;100239.09;4478043;31;30952;-83
2024/03/08 05:32:24;;;;;;;4.70;3.22;;;;;;;8.68;64.01;100235.69;4488034;31;34231;-83
2024/03/08 05:34:53;;;;;;;3.28;3.05;;;;;;;8.78;63.78;100238.91;4477500;31;32810;-83
2024/03/08 05:37:21;;;;;;;6.32;4.97;;;;;;;8.75;63.90;100241.66;4490178;31;32468;-83
2024/03/08 05:39:49;;;;;;;4.05;2.37;;;;;;;8.84;63.71;100249.28;4480480;31;33714;-82
2024/03/08 05:42:17;;;;;;;1.80;1.70;;;;;;;8.87;63.39;100241.28;4491834;31;34818;-81
2024/03/08 05:44:45;;;;;;;3.30;3.05;;;;;;;8.74;64.03;100249.59;4476514;31;32844;-81
2024/03/08 05:47:12;;;;;;;4.95;3.37;;;;;;;9.15;61.95;100253.63;4488455;31;34627;-81
2024/03/08 05:49:44;;;;;;;2.25;2.15;;;;;;;8.85;62.54;100256.28;4490227;31;33996;-81
2024/03/08 05:52:12;;;;;;;3.17;2.45;;;;;;;8.94;62.79;100260.41;4477222;31;35678;-81
2024/03/08 05:54:40;;;;;;;2.40;2.25;;;;;;;9.10;61.75;100256.41;4479798;31;33699;-82
2024/03/08 05:57:08;;;;;;;1.67;1.58;;;;;;;8.76;63.29;100255.69;4490741;31;33841;-82
2024/03/08 05:59:36;;;;;;;4.68;3.33;;;;;;;8.97;62.04;100263.81;4493655;31;34756;-82
2024/03/08 06:02:04;;;;;;;7.05;4.45;;;;;;;8.60;63.28;100261.37;4477419;31;34577;-83
2024/03/08 06:04:32;;;;;;;2.33;2.20;;;;;;;8.42;63.90;100270.66;4482955;31;33582;-82
2024/03/08 06:07:00;;;;;;;1.50;1.40;;;;;;;8.63;62.80;100261.28;4478304;31;33563;-82
2024/03/08 06:09:28;;;;;;;3.20;2.87;;;;;;;8.44;63.64;100268.81;4475567;31;33445;-82
2024/03/08 06:11:57;;;;;;;1.98;1.85;;;;;;;8.41;63.72;100266.31;4478481;31;34179;-83
2024/03/08 06:14:25;;;;;;;3.37;2.60;;;;;;;8.21;64.95;100263.28;4487522;31;32696;-83
2024/03/08 06:16:52;;;;;;;3.45;3.12;;;;;;;8.57;63.83;100261.47;4474241;31;34313;-83
2024/03/08 06:19:20;;;;;;;2.87;2.12;;;;;;;8.46;63.57;100267.03;4474147;31;33784;-82
2024/03/08 06:21:48;;;;;;;1.70;1.60;;;;;;;8.50;63.03;100265.19;4472961;31;31797;-82
2024/03/08 06:24:16;;;;;;;2.35;2.17;;;;;;;8.90;62.23;100264.91;4476442;31;32010;-82
2024/03/08 06:26:44;;;;;;;2.97;2.65;;;;;;;8.38;63.04;100276.03;4475299;31;33982;-81
2024/03/08 06:29:12;;;;;;;2.37;2.17;;;;;;;8.43;63.82;100277.63;4475211;31;33923;-81
2024/03/08 06:31:41;;;;;;;2.45;0.95;;;;;;;8.34;63.55;100277.00;4474345;31;32880;-81
2024/03/08 06:34:08;;;;;;;6.25;2.72;;;;;;;8.11;64.07;100275.81;4473322;31;31894;-81
2024/03/08 06:36:37;;;;;;;2.05;1.95;;;;;;;8.24;64.96;100279.00;4488747;31;33864;-80
2024/03/08 06:39:09;;;;;;;2.30;1.50;;;;;;;8.15;65.22;100277.47;4475677;31;31308;-81
2024/03/08 06:41:38;;;;;;;3.22;1.15;;;;;;;8.40;63.92;100276.84;4477488;31;33888;-81
2024/03/08 06:44:07;;;;;;;2.65;2.50;;;;;;;8.47;63.71;100286.31;4474605;31;32927;-81
2024/03/08 06:46:36;;;;;;;1.95;1.85;;;;;;;8.37;63.39;100285.69;4487177;31;34292;-81
2024/03/08 06:49:03;;;;;;;2.25;2.15;;;;;;;8.52;63.01;100288.81;4474433;31;32437;-81
2024/03/08 06:51:32;;;;;;;3.72;2.12;;;;;;;8.49;64.15;100286.25;4490700;31;33890;-81
2024/03/08 06:54:00;;;;;;;3.15;2.83;;;;;;;8.44;63.38;100292.50;4475761;31;31763;-82
2024/03/08 06:56:29;;;;;;;2.12;2.00;;;;;;;8.52;63.30;100288.81;4477815;31;32361;-81
2024/03/08 06:58:57;;;;;;;3.85;3.17;;;;;;;8.22;64.13;100291.34;4474133;31;33809;-81
2024/03/08 07:01:25;;;;;;;2.75;2.53;;;;;;;8.37;64.75;100290.97;4493114;31;36468;-81
2024/03/08 07:03:53;;;;;;;5.25;3.08;;;;;;;8.22;64.03;100286.09;4485896;31;33950;-81
2024/03/08 07:06:21;;;;;;;2.60;2.45;;;;;;;8.50;63.76;100287.97;4471442;31;34615;-81
2024/03/08 07:08:48;;;;;;;2.10;2.00;;;;;;;8.19;64.30;100286.16;4461392;31;33951;-81
2024/03/08 07:11:18;;;;;;;1.80;1.58;;;;;;;8.19;64.30;100284.37;4487011;31;33851;-81
2024/03/08 07:13:46;;;;;;;6.18;3.58;;;;;;;8.07;65.07;100291.72;4489120;31;33255;-81
2024/03/08 07:16:14;;;;;;;2.58;2.47;;;;;;;8.35;64.17;100292.72;4476400;31;33887;-81
2024/03/08 07:18:43;;;;;;;2.33;2.20;;;;;;;8.34;64.00;100290.16;4474069;31;33249;-81
2024/03/08 07:21:11;;;;;;;3.90;2.97;;;;;;;8.27;64.62;100289.47;4486429;31;34041;-81
2024/03/08 07:26:25;;;;;;;6.80;2.05;;;;;;;8.20;65.06;100291.37;4474438;31;32490;-81
2024/03/08 07:28:58;;;;;;;3.58;3.33;;;;;;;8.19;65.33;100301.94;4463868;31;33721;-81
2024/03/08 07:31:34;;;;;;;1.67;1.58;;;;;;;8.26;65.61;100295.63;4476484;31;34235;-81
2024/03/08 07:34:03;;;;;;;5.82;2.40;;;;;;;8.53;64.74;100295.81;4463067;31;32802;-81
2024/03/08 07:36:31;;;;;;;4.53;3.10;;;;;;;8.60;64.46;100297.38;4489068;31;33616;-81
2024/03/08 07:38:58;;;;;;;8.50;5.75;;;;;;;8.40;64.58;100301.41;4472464;31;33298;-81
2024/03/08 07:41:26;;;;;;;6.60;4.15;;;;;;;8.61;63.97;100302.59;4491218;31;33788;-82
2024/03/08 07:43:54;;;;;;;3.20;2.70;;;;;;;8.44;64.17;100303.03;4475366;31;34064;-82
2024/03/08 07:46:21;;;;;;;2.95;2.75;;;;;;;8.79;63.62;100303.84;4486793;31;33136;-81
2024/03/08 07:48:49;;;;;;;2.90;1.67;;;;;;;8.43;64.10;100301.31;4472751;31;34696;-82
2024/03/08 07:51:20;;;;;;;6.12;3.10;;;;;;;8.43;64.75;100306.59;4487241;31;33759;-81
2024/03/08 07:53:49;;;;;;;4.07;3.13;;;;;;;7.81;66.21;100309.03;4461887;31;32886;-81
2024/03/08 07:56:18;;;;;;;4.80;3.72;;;;;;;8.38;65.23;100303.22;4485563;31;32989;-81
2024/03/08 07:58:45;;;;;;;1.65;1.58;;;;;;;8.62;64.38;100298.19;4469951;31;33728;-81
2024/03/08 08:01:20;;;;;;;4.55;3.05;;;;;;;8.68;63.51;100301.50;4473200;31;34339;-81
2024/03/08 08:03:48;;;;;;;3.08;2.87;;;;;;;7.92;65.92;100312.25;4477179;31;33188;-82
2024/03/08 08:06:16;;;;;;;0.82;0.82;;;;;;;8.14;65.18;100314.34;4474584;31;31791;-81
2024/03/08 08:08:44;;;;;;;2.42;2.33;;;;;;;8.29;65.08;100303.41;4470961;31;34144;-81
2024/03/08 08:11:12;;;;;;;4.45;4.05;;;;;;;8.27;65.03;100307.00;4472547;31;34427;-81
2024/03/08 08:13:42;;;;;;;2.15;2.05;;;;;;;8.41;65.22;100300.50;4473962;31;35791;-81
2024/03/08 08:16:10;;;;;;;4.57;4.15;;;;;;;7.89;68.11;100299.19;4462908;31;33618;-82
2024/03/08 08:18:39;;;;;;;3.05;2.78;;;;;;;8.19;66.82;100299.31;4469807;31;34385;-81
2024/03/08 08:21:06;;;;;;;4.60;4.30;;;;;;;8.12;66.68;100303.00;4484155;31;33467;-82
2024/03/08 08:23:34;;;;;;;3.60;3.30;;;;;;;7.82;67.17;100302.84;4474266;31;33078;-82
2024/03/08 08:26:04;;;;;;;4.15;3.85;;;;;;;8.00;66.60;100308.56;4475264;31;33394;-81
2024/03/08 08:28:32;;;;;;;3.10;2.87;;;;;;;8.45;65.90;100299.53;4478321;31;33297;-81
2024/03/08 08:30:59;;;;;;;3.15;2.95;;;;;;;8.52;65.66;100315.13;4465830;31;33459;-81
2024/03/08 08:33:28;;;;;;;5.53;4.57;;;;;;;8.17;67.08;100314.28;4478401;31;32930;-81
2024/03/08 08:35:56;;;;;;;4.30;3.95;;;;;;;8.07;66.82;100310.12;4489782;31;33770;-81
2024/03/08 08:38:24;;;;;;;1.02;1.02;;;;;;;7.96;68.29;100307.78;4480680;31;33310;-82
2024/03/08 08:40:52;;;;;;;9.80;3.05;;;;;;;8.07;67.34;100320.66;4492903;31;33727;-81
2024/03/08 08:43:23;;;;;;;5.68;3.28;;;;;;;8.31;66.62;100306.91;4489995;31;33550;-82
2024/03/08 08:45:54;;;;;;;0.87;0.83;;;;;;;8.36;67.50;100312.94;4480515;31;33500;-81
2024/03/08 08:48:22;;;;;;;2.22;2.12;;;;;;;8.72;66.22;100303.16;4475616;31;34010;-82
2024/03/08 08:50:52;;;;;;;9.70;4.65;;;;;;;8.94;64.56;100298.13;4488769;31;33888;-81
2024/03/08 08:53:19;;;;;;;7.22;4.12;;;;;;;8.56;66.35;100301.00;4492498;31;32456;-81
2024/03/08 08:55:47;;;;;;;2.70;2.50;;;;;;;8.71;65.54;100303.19;4464376;31;32882;-81
2024/03/08 08:58:16;;;;;;;5.32;3.62;;;;;;;8.58;66.94;100307.06;4491839;31;34787;-81
2024/03/08 09:00:44;;;;;;;2.83;2.62;;;;;;;8.82;65.88;100309.00;4489975;31;34057;-81
2024/03/08 09:03:12;;;;;;;3.78;3.40;;;;;;;8.88;66.24;100302.75;4466518;31;32224;-82
2024/03/08 09:05:42;;;;;;;3.50;2.87;;;;;;;8.52;67.43;100304.63;4478619;31;33310;-81
2024/03/08 09:08:10;;;;;;;4.82;4.37;;;;;;;8.28;68.56;100309.59;4479221;31;34957;-81
2024/03/08 09:10:39;;;;;;;5.60;4.43;;;;;;;8.13;68.94;100308.22;4493918;31;34865;-81
2024/03/08 09:13:09;;;;;;;3.95;3.62;;;;;;;7.81;69.77;100314.28;4491370;31;32560;-81
2024/03/08 09:15:45;;;;;;;1.25;1.20;;;;;;;8.18;68.88;100308.09;4479802;31;32432;-81
2024/03/08 09:18:13;;;;;;;1.62;0.98;;;;;;;8.40;68.49;100296.16;4487525;31;34731;-81
2024/03/08 09:20:41;;;;;;;2.80;2.67;;;;;;;8.44;68.46;100307.44;4475901;31;33143;-82
2024/03/08 09:23:08;;;;;;;1.87;1.73;;;;;;;8.53;68.58;100303.69;4475135;31;33644;-81
2024/03/08 09:25:37;;;;;;;5.80;4.82;;;;;;;8.84;67.55;100296.69;4477106;31;33849;-81
2024/03/08 09:28:05;;;;;;;5.85;4.47;;;;;;;8.94;66.96;100300.78;4478351;31;32651;-82
2024/03/08 09:30:35;;;;;;;1.52;1.42;;;;;;;8.50;68.35;100302.03;4475673;31;33415;-81
2024/03/08 09:33:02;;;;;;;5.72;2.67;;;;;;;8.46;68.67;100300.38;4474257;31;32070;-82
2024/03/08 09:35:31;;;;;;;3.40;3.20;;;;;;;8.76;67.83;100303.94;4476032;31;33907;-81
2024/03/08 09:37:59;;;;;;;2.92;2.78;;;;;;;8.86;67.26;100299.25;4477186;31;33110;-81
2024/03/08 09:40:27;;;;;;;2.20;2.05;;;;;;;8.52;68.01;100305.47;4491237;31;34055;-81
2024/03/08 09:42:55;;;;;;;2.20;1.95;;;;;;;9.00;66.67;100304.13;4475202;31;31923;-81
2024/03/08 09:45:24;;;;;;;1.87;1.77;;;;;;;8.82;67.06;100305.53;4476738;31;34434;-81
2024/03/08 09:47:54;;;;;;;3.15;2.67;;;;;;;8.80;67.03;100305.56;4478428;31;33704;-81
2024/03/08 09:50:22;;;;;;;3.50;3.30;;;;;;;8.50;68.00;100301.16;4478760;31;34814;-81
2024/03/08 09:52:50;;;;;;;4.85;3.12;;;;;;;8.96;66.72;100306.84;4478857;31;34474;-82
2024/03/08 09:55:21;;;;;;;5.45;4.15;;;;;;;8.41;68.67;100304.91;4475093;31;33026;-81
2024/03/08 10:00:42;;;;;;;5.37;2.80;;;;;;;8.46;68.59;100311.78;4465750;31;32678;-80
2024/03/08 10:03:14;;;;;;;1.80;1.70;;;;;;;9.14;66.07;100304.59;4487777;31;33524;-80
2024/03/08 10:05:44;;;;;;;8.27;6.55;;;;;;;9.13;65.72;100308.16;4478133;31;33420;-81
2024/03/08 10:08:13;;;;;;;2.83;2.62;;;;;;;8.95;66.60;100305.13;4478264;31;33946;-81
2024/03/08 10:10:40;;;;;;;1.80;1.70;;;;;;;8.86;67.17;100305.37;4482627;31;34215;-81
2024/03/08 10:13:10;;;;;;;1.15;1.15;;;;;;;9.04;66.72;100311.03;4476576;31;33383;-81
2024/03/08 10:15:39;;;;;;;1.50;1.40;;;;;;;9.30;66.01;100316.38;4476385;31;33574;-83
2024/03/08 10:18:07;;;;;;;3.92;3.72;;;;;;;8.86;67.11;100310.66;4476705;31;33145;-81
2024/03/08 10:20:35;;;;;;;8.95;5.93;;;;;;;9.10;67.10;100316.13;4476171;31;32558;-81
2024/03/08 10:23:05;;;;;;;3.00;2.78;;;;;;;9.20;66.86;100314.94;4470830;31;33486;-81
2024/03/08 10:25:38;;;;;;;1.87;1.77;;;;;;;9.65;65.12;100315.31;4477117;31;33141;-81
2024/03/08 10:28:07;;;;;;;3.78;3.47;;;;;;;9.56;64.79;100314.75;4490498;31;33716;-81
2024/03/08 10:30:36;;;;;;;3.53;3.22;;;;;;;9.81;63.69;100302.50;4475760;31;32755;-81
2024/03/08 10:33:05;;;;;;;2.72;2.50;;;;;;;9.52;64.75;100310.47;4476161;31;33833;-81
2024/03/08 10:35:33;;;;;;;4.87;3.90;;;;;;;9.37;65.37;100306.53;4480131;31;35277;-81
2024/03/08 10:38:07;;;;;;;3.83;2.08;;;;;;;9.62;64.54;100298.72;4478446;31;33142;-81
2024/03/08 10:40:39;;;;;;;9.45;4.57;;;;;;;9.88;63.80;100297.91;4476863;31;33606;-81
2024/03/08 10:43:11;;;;;;;4.37;1.95;;;;;;;9.68;64.28;100303.78;4490981;31;33601;-81
2024/03/08 10:45:42;;;;;;;3.45;3.08;;;;;;;9.60;64.74;100298.78;4488856;31;34522;-81
2024/03/08 10:48:32;;;;;;;5.10;2.93;;;;;;;9.57;64.42;100295.38;4476435;31;32723;-81
2024/03/08 10:51:07;;;;;;;2.65;2.47;;;;;;;9.93;62.95;100291.56;4475562;31;32739;-81
2024/03/08 10:53:36;;;;;;;2.62;2.37;;;;;;;9.85;63.42;100287.44;4469061;31;32912;-81
2024/03/08 10:56:05;;;;;;;1.27;1.08;;;;;;;9.93;63.28;100295.97;4478607;31;32967;-81
2024/03/08 10:58:35;;;;;;;7.50;4.87;;;;;;;9.65;64.25;100288.09;4491487;31;33991;-81
2024/03/08 11:01:03;;;;;;;4.53;3.85;;;;;;;9.85;63.78;100283.03;4493141;31;33163;-81
2024/03/08 11:03:40;;;;;;;9.00;5.87;;;;;;;9.79;64.13;100288.50;4490742;31;33734;-81
2024/03/08 11:06:14;;;;;;;1.35;1.30;;;;;;;9.86;63.93;100290.00;4491364;31;33460;-81
2024/03/08 11:08:42;;;;;;;2.92;2.72;;;;;;;10.04;63.50;100287.69;4464325;31;33485;-81
2024/03/08 11:11:27;;;;;;;5.30;3.42;;;;;;;9.98;63.19;100283.47;4489378;31;33854;-81
2024/03/08 11:14:02;;;;;;;2.12;1.37;;;;;;;10.00;62.77;100285.13;4465653;31;34474;-82
2024/03/08 11:16:31;;;;;;;3.12;2.85;;;;;;;9.77;63.34;100290.31;4476418;31;33188;-82
2024/03/08 11:19:05;;;;;;;2.87;2.45;;;;;;;9.80;63.33;100282.31;4491493;31;33902;-83
2024/03/08 11:21:33;;;;;;;4.55;3.17;;;;;;;9.21;65.45;100285.06;4462807;31;34360;-83
2024/03/08 11:24:07;;;;;;;2.42;2.28;;;;;;;9.42;65.38;100289.66;4488650;31;33691;-83
2024/03/08 11:26:35;;;;;;;1.70;1.60;;;;;;;9.30;65.34;100279.50;4467203;31;34251;-83
2024/03/08 11:29:30;;;;;;;4.05;3.65;;;;;;;9.38;65.57;100282.75;4476855;31;32668;-83
2024/03/08 11:32:10;;;;;;;2.60;2.40;;;;;;;9.72;64.66;100271.13;4489524;31;34171;-83
2024/03/08 11:34:40;;;;;;;4.97;4.40;;;;;;;9.67;65.48;100273.06;4480870;31;34039;-83
2024/03/08 11:37:20;;;;;;;8.77;3.30;;;;;;;9.85;64.67;100264.56;4490162;31;34313;-83
2024/03/08 11:39:52;;;;;;;1.83;1.73;;;;;;;9.59;66.20;100272.44;4478103;31;35216;-83
2024/03/08 11:42:21;;;;;;;6.35;3.85;;;;;;;10.06;64.80;100260.31;4475031;31;34869;-83
2024/03/08 11:44:50;;;;;;;1.77;1.65;;;;;;;9.74;64.36;100264.06;4488099;31;32816;-83
2024/03/08 11:47:18;;;;;;;1.83;1.73;;;;;;;9.96;63.90;100264.19;4461977;31;96920;-83